Delray Beach, FL (33444)

2:40 PM EST on February 11, 2016 (GMT -0500)
woods of southridge 1 mi from ocean | | Change Station
CLOSE
Current Station
Personal Weather Station
Location: Delray Beach, FL
Elevation: 43 ft
Nearby Weather Stations

Elev 43 ft 26.44 °N, 80.08 °W | Updated 22 seconds ago

Clear
Clear
66.8 °F
Feels Like 66.8 °F
N
7.0
Wind Variable Wind from NW
Gusts 10.0 mph

Today
High -- | Low -- °F
--% Chance of Precip.
Yesterday
High -- | Low -- °F
Precip. -- in
Pressure 30.27 in
Visibility 10.0 miles
Clouds Few 13000 ft
Scattered Clouds 20000 ft
Mostly Cloudy 25000 ft
Dew Point 39 °F
Humidity 36%
Rainfall 0.00 in
Snow Depth Not available.
6:59 AM 6:09 PM
Waxing Crescent, 14% visible
METAR KPMP 111853Z 35006KT 10SM FEW130 SCT200 BKN250 19/M03 A3027 RMK AO2 SLP251 T01891033
Pressure 30.27 in
Visibility 10.0 miles
Clouds Few 13000 ft
Scattered Clouds 20000 ft
Mostly Cloudy 25000 ft
Dew Point 39 °F
Humidity 36%
Rainfall 0.00 in
Snow Depth Not available.
6:59 AM 6:09 PM
Waxing Crescent, 14% visible
METAR KPMP 111853Z 35006KT 10SM FEW130 SCT200 BKN250 19/M03 A3027 RMK AO2 SLP251 T01891033

10-Day Weather Forecast

Almanac

Astronomy

Feb. 11, 2016 Rise Set
Actual Time
Civil Twilight
Nautical Twilight
Astronomical Twilight
Moon
Length of Visible Light
Length of Day
Tomorrow will be .
, % of the Moon is Illuminated

Today's Extremes

State Highs State Lows

Community

WunderPhotos

Upload Photos

1,892,143 photos uploaded!

WunderBlog® & News

Nearby

Air Quality

  Air Quality AQ Index Pollutant
Not available.

Snow Depth

Station Depth Elevation

Earthquake Activity

City Distance Mag. Time & Date
Minimum magnitude displayed is 2.5.

Coastal Water Temperatures

Place Temperature

Stations

Nearby Weather Stations

Station Location Temp. Windchill Dew Point Humidity Wind Precip. Elev Updated Type
                   

Watches & Warnings

There are currently no watches in effect.